WJA137 CYYC-CYVR
Flight info
| Callsign | WJA137 |
|---|---|
| Flight time | 1h 4m |
| Altitude | 34000 |
| Route | BOTAG Q894 BOOTH CANUC6 |
| Aircraft | B738/M-SDE2E3FGHIRWXY/LB1 |
Departure
| Time | 2026-05-03 23:23 |
|---|---|
| Airport | Calgary International Airport (CYYC) |
Arrival
| Time | 2026-05-04 00:27 |
|---|---|
| Airport | Vancouver International Airport (CYVR) |
| Time | Latitude | Longitude | Altitude | Speed | Heading |
|---|---|---|---|---|---|
| 2026-05-03 22:53 | 51.12863 | -114.00745 | 3558 ft | 0 kts | 281° |
| 2026-05-03 23:07 | 51.12862 | -114.00719 | 3555 ft | 4 kts | 252° |
| 2026-05-03 23:07 | 51.12865 | -114.00698 | 3556 ft | 0 kts | 264° |
| 2026-05-03 23:11 | 51.12865 | -114.00699 | 3556 ft | 0 kts | 263° |
| 2026-05-03 23:11 | 51.12865 | -114.00700 | 3556 ft | 1 kts | 257° |
| 2026-05-03 23:11 | 51.12858 | -114.00701 | 3558 ft | 1 kts | 176° |
| 2026-05-03 23:11 | 51.12847 | -114.00679 | 3555 ft | 5 kts | 129° |
| 2026-05-03 23:12 | 51.12814 | -114.00645 | 3559 ft | 6 kts | 168° |
| 2026-05-03 23:12 | 51.12802 | -114.00643 | 3556 ft | 0 kts | 178° |
| 2026-05-03 23:13 | 51.12801 | -114.00643 | 3557 ft | 1 kts | 178° |
| 2026-05-03 23:13 | 51.12783 | -114.00642 | 3558 ft | 5 kts | 177° |
| 2026-05-03 23:13 | 51.12735 | -114.00641 | 3558 ft | 9 kts | 179° |
| 2026-05-03 23:14 | 51.12661 | -114.00641 | 3558 ft | 11 kts | 182° |
| 2026-05-03 23:14 | 51.12614 | -114.00722 | 3558 ft | 11 kts | 266° |
| 2026-05-03 23:14 | 51.12614 | -114.00843 | 3558 ft | 11 kts | 271° |
| 2026-05-03 23:14 | 51.12614 | -114.00961 | 3558 ft | 11 kts | 269° |
| 2026-05-03 23:15 | 51.12613 | -114.01078 | 3558 ft | 11 kts | 266° |
| 2026-05-03 23:15 | 51.12604 | -114.01206 | 3558 ft | 12 kts | 265° |
| 2026-05-03 23:15 | 51.12602 | -114.01349 | 3558 ft | 13 kts | 271° |
| 2026-05-03 23:15 | 51.12580 | -114.01491 | 3558 ft | 14 kts | 224° |
| 2026-05-03 23:16 | 51.12502 | -114.01567 | 3558 ft | 13 kts | 184° |
| 2026-05-03 23:16 | 51.12412 | -114.01567 | 3557 ft | 13 kts | 179° |
| 2026-05-03 23:16 | 51.12308 | -114.01565 | 3557 ft | 16 kts | 180° |
| 2026-05-03 23:16 | 51.12182 | -114.01572 | 3557 ft | 20 kts | 188° |
| 2026-05-03 23:17 | 51.12049 | -114.01663 | 3558 ft | 21 kts | 210° |
| 2026-05-03 23:17 | 51.11927 | -114.01771 | 3557 ft | 18 kts | 204° |
| 2026-05-03 23:17 | 51.11808 | -114.01795 | 3558 ft | 17 kts | 179° |
| 2026-05-03 23:17 | 51.11694 | -114.01795 | 3558 ft | 16 kts | 180° |
| 2026-05-03 23:18 | 51.11573 | -114.01793 | 3554 ft | 18 kts | 179° |
| 2026-05-03 23:18 | 51.11437 | -114.01793 | 3558 ft | 21 kts | 181° |
| 2026-05-03 23:18 | 51.11286 | -114.01795 | 3558 ft | 23 kts | 180° |
| 2026-05-03 23:18 | 51.11121 | -114.01796 | 3558 ft | 25 kts | 180° |
| 2026-05-03 23:19 | 51.10945 | -114.01796 | 3558 ft | 26 kts | 180° |
| 2026-05-03 23:19 | 51.10821 | -114.01798 | 3558 ft | 27 kts | 180° |
| 2026-05-03 23:19 | 51.10625 | -114.01798 | 3558 ft | 29 kts | 180° |
| 2026-05-03 23:19 | 51.10421 | -114.01798 | 3559 ft | 29 kts | 180° |
| 2026-05-03 23:20 | 51.10163 | -114.01798 | 3558 ft | 27 kts | 180° |
| 2026-05-03 23:20 | 51.09982 | -114.01797 | 3558 ft | 25 kts | 180° |
| 2026-05-03 23:20 | 51.09867 | -114.01798 | 3558 ft | 24 kts | 180° |
| 2026-05-03 23:20 | 51.09726 | -114.01804 | 3558 ft | 15 kts | 196° |
| 2026-05-03 23:21 | 51.09691 | -114.01911 | 3558 ft | 10 kts | 270° |
| 2026-05-03 23:21 | 51.09690 | -114.02024 | 3559 ft | 10 kts | 269° |
| 2026-05-03 23:21 | 51.09699 | -114.02129 | 3560 ft | 10 kts | 315° |
| 2026-05-03 23:21 | 51.09729 | -114.02138 | 3560 ft | 0 kts | 358° |
| 2026-05-03 23:22 | 51.09987 | -114.02139 | 3560 ft | 69 kts | 360° |
| 2026-05-03 23:22 | 51.10683 | -114.02139 | 3557 ft | 128 kts | 0° |
| 2026-05-03 23:22 | 51.11706 | -114.02149 | 3801 ft | 156 kts | 1° |
| 2026-05-03 23:23 | 51.12820 | -114.02194 | 4507 ft | 159 kts | 359° |
| 2026-05-03 23:23 | 51.13919 | -114.02227 | 5293 ft | 159 kts | 357° |
| 2026-05-03 23:23 | 51.15109 | -114.02297 | 5677 ft | 185 kts | 356° |
| 2026-05-03 23:23 | 51.16467 | -114.02420 | 5975 ft | 207 kts | 355° |
| 2026-05-03 23:24 | 51.17994 | -114.02566 | 6189 ft | 233 kts | 355° |
| 2026-05-03 23:24 | 51.19708 | -114.02727 | 6425 ft | 259 kts | 355° |
| 2026-05-03 23:24 | 51.21511 | -114.03188 | 7156 ft | 264 kts | 336° |
| 2026-05-03 23:24 | 51.22995 | -114.04841 | 8210 ft | 261 kts | 315° |
| 2026-05-03 23:25 | 51.24014 | -114.07216 | 9284 ft | 260 kts | 296° |
| 2026-05-03 23:25 | 51.24418 | -114.10060 | 10121 ft | 273 kts | 275° |
| 2026-05-03 23:25 | 51.24017 | -114.13175 | 10442 ft | 305 kts | 251° |
| 2026-05-03 23:25 | 51.22976 | -114.16293 | 10781 ft | 327 kts | 244° |
| 2026-05-03 23:26 | 51.21812 | -114.19458 | 11481 ft | 333 kts | 244° |
| 2026-05-03 23:26 | 51.20667 | -114.22617 | 12332 ft | 334 kts | 244° |
| 2026-05-03 23:26 | 51.19513 | -114.25833 | 13218 ft | 334 kts | 244° |
| 2026-05-03 23:26 | 51.18360 | -114.29068 | 14033 ft | 336 kts | 244° |
| 2026-05-03 23:27 | 51.17204 | -114.32320 | 14723 ft | 340 kts | 245° |
| 2026-05-03 23:27 | 51.16030 | -114.35629 | 15330 ft | 346 kts | 245° |
| 2026-05-03 23:27 | 51.14837 | -114.38990 | 15950 ft | 351 kts | 245° |
| 2026-05-03 23:27 | 51.13627 | -114.42394 | 16602 ft | 355 kts | 246° |
| 2026-05-03 23:28 | 51.12399 | -114.45843 | 17181 ft | 361 kts | 246° |
| 2026-05-03 23:28 | 51.11148 | -114.49350 | 17813 ft | 366 kts | 246° |
| 2026-05-03 23:28 | 51.09885 | -114.52886 | 18449 ft | 370 kts | 247° |
| 2026-05-03 23:28 | 51.08607 | -114.56455 | 19054 ft | 372 kts | 247° |
| 2026-05-03 23:29 | 51.07362 | -114.60067 | 19669 ft | 371 kts | 251° |
| 2026-05-03 23:29 | 51.06476 | -114.63881 | 20249 ft | 367 kts | 261° |
| 2026-05-03 23:29 | 51.05881 | -114.67831 | 20836 ft | 368 kts | 263° |
| 2026-05-03 23:29 | 51.05293 | -114.71798 | 21416 ft | 371 kts | 262° |
| 2026-05-03 23:30 | 51.04677 | -114.75803 | 21966 ft | 374 kts | 262° |
| 2026-05-03 23:30 | 51.04043 | -114.79837 | 22489 ft | 378 kts | 262° |
| 2026-05-03 23:30 | 51.03401 | -114.83849 | 23070 ft | 379 kts | 262° |
| 2026-05-03 23:30 | 51.02743 | -114.87920 | 23569 ft | 382 kts | 261° |
| 2026-05-03 23:31 | 51.02076 | -114.92045 | 23891 ft | 388 kts | 261° |
| 2026-05-03 23:31 | 51.01400 | -114.96213 | 24316 ft | 389 kts | 261° |
| 2026-05-03 23:31 | 51.00720 | -115.00384 | 24841 ft | 390 kts | 261° |
| 2026-05-03 23:31 | 51.00037 | -115.04570 | 25271 ft | 393 kts | 261° |
| 2026-05-03 23:32 | 50.99350 | -115.08777 | 25703 ft | 396 kts | 261° |
| 2026-05-03 23:32 | 50.98654 | -115.13032 | 26066 ft | 399 kts | 261° |
| 2026-05-03 23:32 | 50.97954 | -115.17309 | 26526 ft | 401 kts | 261° |
| 2026-05-03 23:32 | 50.97248 | -115.21601 | 26984 ft | 402 kts | 261° |
| 2026-05-03 23:33 | 50.96537 | -115.25910 | 27391 ft | 405 kts | 261° |
| 2026-05-03 23:33 | 50.95819 | -115.30255 | 27771 ft | 408 kts | 261° |
| 2026-05-03 23:33 | 50.95096 | -115.34620 | 28156 ft | 410 kts | 261° |
| 2026-05-03 23:33 | 50.94377 | -115.38944 | 28558 ft | 412 kts | 261° |
| 2026-05-03 23:34 | 50.93643 | -115.43360 | 28861 ft | 416 kts | 261° |
| 2026-05-03 23:34 | 50.92901 | -115.47809 | 29200 ft | 419 kts | 261° |
| 2026-05-03 23:34 | 50.92152 | -115.52284 | 29525 ft | 420 kts | 261° |
| 2026-05-03 23:34 | 50.91397 | -115.56778 | 29892 ft | 421 kts | 261° |
| 2026-05-03 23:35 | 50.90644 | -115.61244 | 30405 ft | 418 kts | 261° |
| 2026-05-03 23:35 | 50.89894 | -115.65682 | 30829 ft | 416 kts | 261° |
| 2026-05-03 23:35 | 50.89145 | -115.70116 | 31052 ft | 419 kts | 261° |
| 2026-05-03 23:35 | 50.88390 | -115.74576 | 31399 ft | 419 kts | 261° |
| 2026-05-03 23:36 | 50.87635 | -115.79020 | 31772 ft | 418 kts | 261° |
| 2026-05-03 23:36 | 50.86877 | -115.83476 | 32009 ft | 421 kts | 261° |
| 2026-05-03 23:36 | 50.86113 | -115.87948 | 32345 ft | 421 kts | 261° |
| 2026-05-03 23:36 | 50.85348 | -115.92412 | 32682 ft | 421 kts | 261° |
| 2026-05-03 23:37 | 50.84580 | -115.96879 | 33026 ft | 420 kts | 261° |
| 2026-05-03 23:37 | 50.83813 | -116.01335 | 33450 ft | 418 kts | 261° |
| 2026-05-03 23:37 | 50.83045 | -116.05779 | 33814 ft | 417 kts | 261° |
| 2026-05-03 23:37 | 50.82286 | -116.10173 | 33923 ft | 423 kts | 261° |
| 2026-05-03 23:38 | 50.80723 | -116.19194 | 33924 ft | 423 kts | 261° |
| 2026-05-03 23:38 | 50.79162 | -116.28117 | 33939 ft | 420 kts | 261° |
| 2026-05-03 23:39 | 50.77596 | -116.37062 | 33940 ft | 423 kts | 260° |
| 2026-05-03 23:39 | 50.76017 | -116.46030 | 33967 ft | 425 kts | 260° |
| 2026-05-03 23:40 | 50.74338 | -116.55016 | 33961 ft | 428 kts | 259° |
| 2026-05-03 23:40 | 50.72572 | -116.64018 | 33975 ft | 430 kts | 258° |
| 2026-05-03 23:41 | 50.70800 | -116.73016 | 33977 ft | 429 kts | 258° |
| 2026-05-03 23:41 | 50.69049 | -116.81933 | 34001 ft | 432 kts | 258° |
| 2026-05-03 23:42 | 50.67242 | -116.91152 | 33964 ft | 447 kts | 258° |
| 2026-05-03 23:42 | 50.65370 | -117.00644 | 33960 ft | 456 kts | 258° |
| 2026-05-03 23:43 | 50.63472 | -117.10182 | 33901 ft | 454 kts | 258° |
| 2026-05-03 23:43 | 50.61577 | -117.19661 | 33948 ft | 454 kts | 258° |
| 2026-05-03 23:44 | 50.59677 | -117.29145 | 33959 ft | 454 kts | 257° |
| 2026-05-03 23:44 | 50.57767 | -117.38634 | 33940 ft | 455 kts | 257° |
| 2026-05-03 23:45 | 50.55848 | -117.48109 | 33955 ft | 454 kts | 257° |
| 2026-05-03 23:45 | 50.53923 | -117.57575 | 33946 ft | 454 kts | 257° |
| 2026-05-03 23:46 | 50.51990 | -117.67039 | 33944 ft | 455 kts | 257° |
| 2026-05-03 23:46 | 50.50059 | -117.76446 | 33950 ft | 454 kts | 257° |
| 2026-05-03 23:47 | 50.48109 | -117.85900 | 33938 ft | 455 kts | 257° |
| 2026-05-03 23:47 | 50.46148 | -117.95359 | 33917 ft | 455 kts | 257° |
| 2026-05-03 23:48 | 50.44181 | -118.04800 | 33935 ft | 455 kts | 257° |
| 2026-05-03 23:48 | 50.42210 | -118.14227 | 33950 ft | 456 kts | 257° |
| 2026-05-03 23:49 | 50.40221 | -118.23692 | 33942 ft | 457 kts | 257° |
| 2026-05-03 23:49 | 50.38236 | -118.33092 | 33960 ft | 457 kts | 256° |
| 2026-05-03 23:50 | 50.36554 | -118.41019 | 33961 ft | 458 kts | 256° |
| 2026-05-03 23:50 | 50.34209 | -118.52025 | 33963 ft | 458 kts | 256° |
| 2026-05-03 23:51 | 50.32185 | -118.61475 | 33961 ft | 458 kts | 256° |
| 2026-05-03 23:51 | 50.30155 | -118.70908 | 33964 ft | 457 kts | 256° |
| 2026-05-03 23:52 | 50.28118 | -118.80332 | 33913 ft | 457 kts | 256° |
| 2026-05-03 23:52 | 50.26076 | -118.89737 | 33944 ft | 458 kts | 256° |
| 2026-05-03 23:53 | 50.24017 | -118.99180 | 33940 ft | 459 kts | 256° |
| 2026-05-03 23:53 | 50.21958 | -119.08578 | 33942 ft | 461 kts | 256° |
| 2026-05-03 23:54 | 50.19870 | -119.18065 | 33933 ft | 463 kts | 256° |
| 2026-05-03 23:54 | 50.17768 | -119.27569 | 33921 ft | 465 kts | 256° |
| 2026-05-03 23:55 | 50.15647 | -119.37121 | 33917 ft | 466 kts | 256° |
| 2026-05-03 23:55 | 50.13509 | -119.46695 | 33920 ft | 467 kts | 255° |
| 2026-05-03 23:56 | 50.11365 | -119.56256 | 33929 ft | 467 kts | 255° |
| 2026-05-03 23:56 | 50.09227 | -119.65751 | 33896 ft | 468 kts | 255° |
| 2026-05-03 23:57 | 50.07063 | -119.75316 | 33911 ft | 469 kts | 255° |
| 2026-05-03 23:57 | 50.05972 | -119.80127 | 33538 ft | 476 kts | 255° |
| 2026-05-03 23:57 | 50.04869 | -119.84977 | 33130 ft | 471 kts | 255° |
| 2026-05-03 23:58 | 50.03781 | -119.89737 | 32694 ft | 464 kts | 255° |
| 2026-05-03 23:58 | 50.02706 | -119.94424 | 32311 ft | 457 kts | 255° |
| 2026-05-03 23:58 | 50.01640 | -119.99067 | 31915 ft | 451 kts | 255° |
| 2026-05-03 23:58 | 50.00592 | -120.03622 | 31543 ft | 445 kts | 255° |
| 2026-05-03 23:59 | 49.99557 | -120.08119 | 31133 ft | 440 kts | 255° |
| 2026-05-03 23:59 | 49.98532 | -120.12568 | 30764 ft | 434 kts | 255° |
| 2026-05-03 23:59 | 49.97518 | -120.16957 | 30399 ft | 429 kts | 255° |
| 2026-05-03 23:59 | 49.96514 | -120.21299 | 30037 ft | 424 kts | 255° |
| 2026-05-04 00:00 | 49.95522 | -120.25579 | 29627 ft | 419 kts | 255° |
| 2026-05-04 00:00 | 49.94541 | -120.29798 | 29264 ft | 412 kts | 255° |
| 2026-05-04 00:00 | 49.93573 | -120.33953 | 28881 ft | 407 kts | 255° |
| 2026-05-04 00:00 | 49.92616 | -120.38057 | 28510 ft | 401 kts | 255° |
| 2026-05-04 00:01 | 49.91671 | -120.42100 | 28133 ft | 397 kts | 254° |
| 2026-05-04 00:01 | 49.90735 | -120.46099 | 27758 ft | 392 kts | 254° |
| 2026-05-04 00:01 | 49.89809 | -120.50049 | 27394 ft | 388 kts | 254° |
| 2026-05-04 00:01 | 49.88891 | -120.53955 | 27031 ft | 384 kts | 254° |
| 2026-05-04 00:02 | 49.87979 | -120.57832 | 26682 ft | 380 kts | 254° |
| 2026-05-04 00:02 | 49.87078 | -120.61656 | 26325 ft | 376 kts | 254° |
| 2026-05-04 00:02 | 49.86180 | -120.65453 | 25980 ft | 373 kts | 254° |
| 2026-05-04 00:02 | 49.85293 | -120.69205 | 25643 ft | 370 kts | 253° |
| 2026-05-04 00:03 | 49.84409 | -120.72931 | 25297 ft | 366 kts | 253° |
| 2026-05-04 00:03 | 49.83534 | -120.76618 | 24960 ft | 364 kts | 253° |
| 2026-05-04 00:03 | 49.82673 | -120.80237 | 24632 ft | 361 kts | 253° |
| 2026-05-04 00:03 | 49.81808 | -120.83868 | 24297 ft | 358 kts | 253° |
| 2026-05-04 00:04 | 49.80946 | -120.87478 | 23961 ft | 356 kts | 253° |
| 2026-05-04 00:04 | 49.80089 | -120.91066 | 23639 ft | 354 kts | 253° |
| 2026-05-04 00:04 | 49.79237 | -120.94626 | 23274 ft | 352 kts | 253° |
| 2026-05-04 00:04 | 49.78386 | -120.98172 | 22905 ft | 350 kts | 253° |
| 2026-05-04 00:05 | 49.77540 | -121.01690 | 22565 ft | 347 kts | 253° |
| 2026-05-04 00:05 | 49.76703 | -121.05168 | 22242 ft | 343 kts | 253° |
| 2026-05-04 00:05 | 49.75871 | -121.08621 | 21899 ft | 340 kts | 253° |
| 2026-05-04 00:05 | 49.75326 | -121.10879 | 21708 ft | 337 kts | 252° |
| 2026-05-04 00:06 | 49.74507 | -121.14267 | 21359 ft | 335 kts | 252° |
| 2026-05-04 00:06 | 49.73695 | -121.17624 | 21064 ft | 332 kts | 252° |
| 2026-05-04 00:06 | 49.72887 | -121.20957 | 20742 ft | 330 kts | 252° |
| 2026-05-04 00:06 | 49.72082 | -121.24274 | 20431 ft | 328 kts | 252° |
| 2026-05-04 00:07 | 49.71282 | -121.27566 | 20103 ft | 327 kts | 252° |
| 2026-05-04 00:07 | 49.70484 | -121.30843 | 19798 ft | 325 kts | 252° |
| 2026-05-04 00:07 | 49.69688 | -121.34105 | 19493 ft | 324 kts | 252° |
| 2026-05-04 00:07 | 49.68893 | -121.37365 | 19187 ft | 323 kts | 252° |
| 2026-05-04 00:08 | 49.68101 | -121.40602 | 18886 ft | 322 kts | 252° |
| 2026-05-04 00:08 | 49.67311 | -121.43829 | 18568 ft | 321 kts | 252° |
| 2026-05-04 00:08 | 49.66523 | -121.47043 | 18272 ft | 320 kts | 252° |
| 2026-05-04 00:08 | 49.65732 | -121.50263 | 17941 ft | 320 kts | 252° |
| 2026-05-04 00:09 | 49.64953 | -121.53432 | 17626 ft | 318 kts | 251° |
| 2026-05-04 00:09 | 49.64168 | -121.56618 | 17319 ft | 316 kts | 251° |
| 2026-05-04 00:09 | 49.63388 | -121.59774 | 17022 ft | 314 kts | 251° |
| 2026-05-04 00:09 | 49.62612 | -121.62918 | 16729 ft | 313 kts | 251° |
| 2026-05-04 00:10 | 49.61837 | -121.66050 | 16415 ft | 312 kts | 251° |
| 2026-05-04 00:10 | 49.61064 | -121.69170 | 16124 ft | 311 kts | 251° |
| 2026-05-04 00:10 | 49.60293 | -121.72281 | 15829 ft | 310 kts | 251° |
| 2026-05-04 00:10 | 49.59521 | -121.75387 | 15533 ft | 310 kts | 251° |
| 2026-05-04 00:11 | 49.58750 | -121.78487 | 15239 ft | 309 kts | 251° |
| 2026-05-04 00:11 | 49.57982 | -121.81573 | 14934 ft | 308 kts | 251° |
| 2026-05-04 00:11 | 49.57215 | -121.84646 | 14646 ft | 306 kts | 250° |
| 2026-05-04 00:11 | 49.56453 | -121.87699 | 14352 ft | 305 kts | 250° |
| 2026-05-04 00:12 | 49.55700 | -121.90709 | 14067 ft | 304 kts | 250° |
| 2026-05-04 00:12 | 49.54942 | -121.93739 | 13779 ft | 303 kts | 250° |
| 2026-05-04 00:12 | 49.54185 | -121.96761 | 13471 ft | 302 kts | 250° |
| 2026-05-04 00:12 | 49.53427 | -121.99778 | 13156 ft | 301 kts | 250° |
| 2026-05-04 00:13 | 49.52671 | -122.02783 | 12845 ft | 300 kts | 250° |
| 2026-05-04 00:13 | 49.51853 | -122.05737 | 12547 ft | 298 kts | 243° |
| 2026-05-04 00:13 | 49.50781 | -122.08422 | 12341 ft | 292 kts | 238° |
| 2026-05-04 00:13 | 49.49674 | -122.11039 | 12046 ft | 291 kts | 238° |
| 2026-05-04 00:14 | 49.48584 | -122.13664 | 11759 ft | 291 kts | 239° |
| 2026-05-04 00:14 | 49.47509 | -122.16299 | 11455 ft | 291 kts | 239° |
| 2026-05-04 00:14 | 49.46443 | -122.18947 | 11180 ft | 291 kts | 239° |
| 2026-05-04 00:14 | 49.45390 | -122.21599 | 10902 ft | 290 kts | 240° |
| 2026-05-04 00:15 | 49.44341 | -122.24250 | 10608 ft | 290 kts | 240° |
| 2026-05-04 00:15 | 49.43293 | -122.26899 | 10333 ft | 289 kts | 240° |
| 2026-05-04 00:15 | 49.42256 | -122.29510 | 10200 ft | 283 kts | 240° |
| 2026-05-04 00:15 | 49.41242 | -122.32058 | 10061 ft | 277 kts | 240° |
| 2026-05-04 00:16 | 49.40258 | -122.34524 | 9946 ft | 271 kts | 239° |
| 2026-05-04 00:16 | 49.39113 | -122.36832 | 9662 ft | 273 kts | 229° |
| 2026-05-04 00:16 | 49.37832 | -122.38984 | 9406 ft | 272 kts | 228° |
| 2026-05-04 00:16 | 49.36557 | -122.41122 | 9114 ft | 271 kts | 229° |
| 2026-05-04 00:17 | 49.35296 | -122.43254 | 9041 ft | 269 kts | 228° |
| 2026-05-04 00:17 | 49.34044 | -122.45368 | 8989 ft | 265 kts | 229° |
| 2026-05-04 00:17 | 49.32829 | -122.47428 | 8890 ft | 258 kts | 229° |
| 2026-05-04 00:17 | 49.31636 | -122.49456 | 8641 ft | 256 kts | 229° |
| 2026-05-04 00:18 | 49.30414 | -122.51536 | 8077 ft | 268 kts | 228° |
| 2026-05-04 00:18 | 49.29150 | -122.53685 | 7708 ft | 272 kts | 228° |
| 2026-05-04 00:18 | 49.27890 | -122.55830 | 7505 ft | 268 kts | 228° |
| 2026-05-04 00:18 | 49.26678 | -122.57899 | 7405 ft | 252 kts | 229° |
| 2026-05-04 00:19 | 49.25548 | -122.59830 | 7279 ft | 235 kts | 229° |
| 2026-05-04 00:19 | 49.24487 | -122.61640 | 7066 ft | 224 kts | 228° |
| 2026-05-04 00:19 | 49.23447 | -122.63414 | 6675 ft | 224 kts | 228° |
| 2026-05-04 00:19 | 49.22406 | -122.65185 | 6282 ft | 223 kts | 228° |
| 2026-05-04 00:20 | 49.21381 | -122.66928 | 5967 ft | 218 kts | 228° |
| 2026-05-04 00:20 | 49.20425 | -122.68695 | 5598 ft | 215 kts | 237° |
| 2026-05-04 00:20 | 49.19657 | -122.70605 | 5256 ft | 211 kts | 240° |
| 2026-05-04 00:20 | 49.18907 | -122.72521 | 4887 ft | 209 kts | 239° |
| 2026-05-04 00:21 | 49.18161 | -122.74399 | 4617 ft | 205 kts | 239° |
| 2026-05-04 00:21 | 49.17420 | -122.76246 | 4405 ft | 203 kts | 239° |
| 2026-05-04 00:21 | 49.16680 | -122.78080 | 4214 ft | 201 kts | 239° |
| 2026-05-04 00:21 | 49.16155 | -122.79984 | 4040 ft | 190 kts | 261° |
| 2026-05-04 00:22 | 49.16059 | -122.81931 | 3991 ft | 183 kts | 281° |
| 2026-05-04 00:22 | 49.16389 | -122.83796 | 3991 ft | 181 kts | 286° |
| 2026-05-04 00:22 | 49.16669 | -122.85649 | 3826 ft | 177 kts | 277° |
| 2026-05-04 00:22 | 49.16799 | -122.87451 | 3652 ft | 162 kts | 278° |
| 2026-05-04 00:23 | 49.16975 | -122.89104 | 3423 ft | 162 kts | 281° |
| 2026-05-04 00:23 | 49.17219 | -122.90988 | 3225 ft | 188 kts | 281° |
| 2026-05-04 00:23 | 49.17469 | -122.92955 | 2939 ft | 188 kts | 281° |
| 2026-05-04 00:23 | 49.17674 | -122.94837 | 2742 ft | 178 kts | 279° |
| 2026-05-04 00:24 | 49.17886 | -122.96705 | 2504 ft | 178 kts | 281° |
| 2026-05-04 00:24 | 49.18095 | -122.98583 | 2248 ft | 179 kts | 280° |
| 2026-05-04 00:24 | 49.18290 | -123.00444 | 1988 ft | 175 kts | 278° |
| 2026-05-04 00:24 | 49.18504 | -123.02270 | 1815 ft | 177 kts | 281° |
| 2026-05-04 00:25 | 49.18728 | -123.04144 | 1618 ft | 178 kts | 280° |
| 2026-05-04 00:25 | 49.18913 | -123.05946 | 1404 ft | 163 kts | 279° |
| 2026-05-04 00:25 | 49.19093 | -123.07534 | 1275 ft | 142 kts | 279° |
| 2026-05-04 00:25 | 49.19250 | -123.08980 | 1061 ft | 136 kts | 279° |
| 2026-05-04 00:26 | 49.19420 | -123.10455 | 827 ft | 143 kts | 279° |
| 2026-05-04 00:26 | 49.19594 | -123.11977 | 636 ft | 147 kts | 279° |
| 2026-05-04 00:26 | 49.19770 | -123.13521 | 438 ft | 147 kts | 280° |
| 2026-05-04 00:26 | 49.19941 | -123.15044 | 216 ft | 144 kts | 279° |
| 2026-05-04 00:27 | 49.20107 | -123.16494 | 28 ft | 133 kts | 281° |
| 2026-05-04 00:27 | 49.20249 | -123.17742 | 16 ft | 100 kts | 280° |
| 2026-05-04 00:27 | 49.20342 | -123.18555 | 19 ft | 56 kts | 279° |
| 2026-05-04 00:27 | 49.20383 | -123.18981 | 18 ft | 36 kts | 272° |
| 2026-05-04 00:28 | 49.20363 | -123.19308 | 16 ft | 22 kts | 251° |
| 2026-05-04 00:28 | 49.20325 | -123.19475 | 17 ft | 12 kts | 250° |
| 2026-05-04 00:28 | 49.20291 | -123.19589 | 17 ft | 10 kts | 228° |
| 2026-05-04 00:28 | 49.20249 | -123.19579 | 17 ft | 6 kts | 112° |
| 2026-05-04 00:29 | 49.20240 | -123.19513 | 17 ft | 7 kts | 100° |
| 2026-05-04 00:29 | 49.20230 | -123.19427 | 18 ft | 10 kts | 100° |
| 2026-05-04 00:29 | 49.20216 | -123.19300 | 18 ft | 14 kts | 98° |
| 2026-05-04 00:29 | 49.20206 | -123.19133 | 17 ft | 18 kts | 94° |
| 2026-05-04 00:30 | 49.20176 | -123.18951 | 17 ft | 14 kts | 103° |
| 2026-05-04 00:30 | 49.20156 | -123.18781 | 17 ft | 18 kts | 100° |
| 2026-05-04 00:30 | 49.20134 | -123.18579 | 17 ft | 17 kts | 100° |
| 2026-05-04 00:30 | 49.20065 | -123.18438 | 16 ft | 17 kts | 128° |
| 2026-05-04 00:31 | 49.20018 | -123.18275 | 16 ft | 18 kts | 105° |
| 2026-05-04 00:31 | 49.19979 | -123.18135 | 16 ft | 9 kts | 159° |
| 2026-05-04 00:31 | 49.19933 | -123.18134 | 16 ft | 0 kts | 180° |